Time;durP1;ratioP1;P1;durP2;ratioP2;P2;SDS_P1;SDS_P2;PMS_P1;PMS_P2;Temp;Humidity;BMP_temperature;BMP_pressure;BME280_temperature;BME280_humidity;BME280_pressure;Samples;Min_cycle;Max_cycle;Signal;HPM_P1;HPM_P2
2022/07/14 00:01:07;;;;;;;1.87;0.88;;;;;;;14.78;90.78;98767.34;1811513;78;21139;-75
2022/07/14 00:03:34;;;;;;;3.77;0.78;;;;;;;14.76;90.83;98771.41;1810670;79;21036;-76
2022/07/14 00:06:00;;;;;;;1.00;0.70;;;;;;;14.76;90.96;98771.41;1811344;79;21171;-75
2022/07/14 00:08:27;;;;;;;3.15;0.60;;;;;;;14.78;90.89;98770.83;1810882;79;21013;-75
2022/07/14 00:10:53;;;;;;;3.35;0.80;;;;;;;14.80;90.80;98778.20;1810908;79;20998;-74
2022/07/14 00:13:20;;;;;;;0.80;0.80;;;;;;;14.79;90.72;98779.17;1810981;78;20973;-76
2022/07/14 00:15:46;;;;;;;7.55;1.00;;;;;;;14.77;90.65;98778.39;1810865;79;22166;-76
2022/07/14 00:18:13;;;;;;;2.17;0.90;;;;;;;14.76;90.65;98775.84;1811223;79;21084;-77
2022/07/14 00:20:40;;;;;;;1.60;0.70;;;;;;;14.75;90.74;98777.64;1810680;79;21076;-75
2022/07/14 00:23:07;;;;;;;1.50;0.80;;;;;;;14.74;90.74;98781.23;1810945;79;21103;-76
2022/07/14 00:25:33;;;;;;;2.75;0.90;;;;;;;14.73;90.84;98784.84;1811042;79;21566;-76
2022/07/14 00:28:00;;;;;;;1.85;0.80;;;;;;;14.72;91.01;98789.75;1811022;79;21054;-76
2022/07/14 00:30:27;;;;;;;1.52;0.70;;;;;;;14.72;91.59;98786.27;1810840;78;21134;-77
2022/07/14 00:32:54;;;;;;;1.00;0.90;;;;;;;14.72;91.52;98788.42;1807874;78;21035;-76
2022/07/14 00:35:20;;;;;;;1.17;0.80;;;;;;;14.72;91.64;98792.40;1808994;79;21062;-76
2022/07/14 00:37:47;;;;;;;1.45;0.90;;;;;;;14.70;91.68;98790.33;1809638;79;21016;-76
2022/07/14 00:40:15;;;;;;;3.25;0.90;;;;;;;14.69;91.80;98788.61;1809170;79;20988;-76
2022/07/14 00:42:48;;;;;;;2.85;0.60;;;;;;;14.68;91.94;98786.45;1809261;79;21118;-77
2022/07/14 00:45:20;;;;;;;3.85;0.70;;;;;;;14.67;92.08;98786.06;1808377;79;21087;-78
2022/07/14 00:47:48;;;;;;;1.45;0.70;;;;;;;14.66;92.13;98788.35;1809441;79;20980;-75
2022/07/14 00:50:16;;;;;;;4.05;0.75;;;;;;;14.64;92.22;98788.05;1789053;79;21079;-74
2022/07/14 00:52:43;;;;;;;3.22;0.82;;;;;;;14.63;92.18;98794.31;1785039;80;21509;-76
2022/07/14 00:55:11;;;;;;;1.25;0.80;;;;;;;14.61;92.15;98796.22;1785183;80;21625;-76
2022/07/14 00:57:37;;;;;;;1.45;0.90;;;;;;;14.59;92.23;98790.14;1785005;80;21519;-76
2022/07/14 01:00:06;;;;;;;0.82;0.82;;;;;;;14.59;92.17;98792.80;1785489;80;21594;-76
2022/07/14 01:02:33;;;;;;;0.90;0.88;;;;;;;14.57;92.25;98793.34;1784944;80;20970;-76
2022/07/14 01:04:59;;;;;;;3.20;0.78;;;;;;;14.58;92.20;98792.41;1785160;80;21095;-75
2022/07/14 01:07:28;;;;;;;1.32;0.80;;;;;;;14.56;92.08;98799.56;1784926;80;21136;-77
2022/07/14 01:09:55;;;;;;;2.25;0.88;;;;;;;14.55;92.02;98798.72;1785188;80;21075;-75
2022/07/14 01:12:23;;;;;;;1.00;0.85;;;;;;;14.53;92.06;98805.08;1707678;84;20991;-75
2022/07/14 01:14:50;;;;;;;1.20;0.90;;;;;;;14.50;92.03;98804.30;1729513;83;21139;-75
2022/07/14 01:17:17;;;;;;;1.57;0.90;;;;;;;14.50;92.07;98808.75;1728995;83;21005;-78
2022/07/14 01:19:48;;;;;;;9.15;1.65;;;;;;;14.49;92.06;98802.61;1729453;83;21151;-76
2022/07/14 01:22:14;;;;;;;3.10;0.90;;;;;;;14.47;92.02;98803.19;1728871;83;20953;-75
2022/07/14 01:24:40;;;;;;;1.30;0.80;;;;;;;14.45;92.11;98802.41;1719750;83;21071;-75
2022/07/14 01:27:07;;;;;;;0.80;0.80;;;;;;;14.48;92.09;98808.84;1729154;82;21001;-75
2022/07/14 01:29:34;;;;;;;1.50;0.78;;;;;;;14.50;92.03;98810.91;1708326;84;21151;-75
2022/07/14 01:32:00;;;;;;;2.00;0.80;;;;;;;14.50;91.98;98815.37;1729156;82;22015;-75
2022/07/14 01:34:27;;;;;;;2.80;0.80;;;;;;;14.47;91.92;98815.55;1708105;83;21661;-75
2022/07/14 01:36:55;;;;;;;4.35;0.98;;;;;;;14.47;91.86;98823.05;1729076;83;21566;-76
2022/07/14 01:39:21;;;;;;;4.12;0.90;;;;;;;14.47;91.79;98816.42;1707648;84;21187;-75
2022/07/14 01:41:49;;;;;;;1.50;0.80;;;;;;;14.45;91.85;98816.97;1729028;82;21053;-75
2022/07/14 01:44:16;;;;;;;1.70;0.70;;;;;;;14.45;91.77;98815.64;1729244;83;21164;-75
2022/07/14 01:46:43;;;;;;;2.67;1.00;;;;;;;14.43;91.67;98818.02;1729295;82;21110;-76
2022/07/14 01:49:09;;;;;;;1.37;0.80;;;;;;;14.40;91.67;98812.43;1716467;80;21012;-76
2022/07/14 01:51:36;;;;;;;5.75;1.00;;;;;;;14.39;91.70;98823.11;1738768;82;21072;-75
2022/07/14 01:54:06;;;;;;;1.17;0.95;;;;;;;14.36;91.65;98810.09;1708150;83;21068;-75
2022/07/14 01:56:36;;;;;;;0.88;0.88;;;;;;;14.35;91.64;98829.06;1729212;83;21260;-76
2022/07/14 01:59:02;;;;;;;2.62;0.82;;;;;;;14.33;91.76;98826.99;1707535;82;21642;-75
2022/07/14 02:01:41;;;;;;;1.27;1.10;;;;;;;14.30;91.73;98829.83;1707731;84;21571;-76
2022/07/14 02:04:12;;;;;;;2.12;1.00;;;;;;;14.30;91.76;98832.47;1729466;82;21116;-75
2022/07/14 02:06:50;;;;;;;4.40;1.05;;;;;;;14.27;91.71;98836.17;1707696;82;21142;-75
2022/07/14 02:12:18;;;;;;;0.85;0.85;;;;;;;14.22;91.93;98848.83;1729390;83;21064;-76
2022/07/14 02:14:45;;;;;;;2.35;0.85;;;;;;;14.19;92.05;98848.14;1729009;83;21052;-74
2022/07/14 02:17:12;;;;;;;2.40;0.72;;;;;;;14.18;92.14;98843.80;1729275;83;21072;-76
2022/07/14 02:19:38;;;;;;;0.70;0.70;;;;;;;14.17;92.24;98852.67;1707978;84;21536;-76
2022/07/14 02:22:05;;;;;;;2.35;0.85;;;;;;;14.18;92.31;98855.71;1729121;83;21175;-78
2022/07/14 02:24:31;;;;;;;0.90;0.90;;;;;;;14.18;92.33;98857.03;1707586;84;21111;-75
2022/07/14 02:26:58;;;;;;;4.35;0.82;;;;;;;14.19;92.33;98856.07;1729441;82;21122;-77
2022/07/14 02:29:25;;;;;;;2.70;0.90;;;;;;;14.19;92.33;98858.72;1707816;84;20974;-75
2022/07/14 02:31:51;;;;;;;3.12;1.65;;;;;;;14.17;92.37;98859.28;1729390;82;21081;-76
2022/07/14 02:34:19;;;;;;;4.37;2.30;;;;;;;14.16;92.46;98861.57;1707663;84;21019;-75
2022/07/14 02:36:47;;;;;;;1.55;1.42;;;;;;;14.15;92.60;98861.18;1729233;82;21066;-76
2022/07/14 02:39:14;;;;;;;2.30;1.27;;;;;;;14.16;92.72;98868.19;1743662;81;20988;-78
2022/07/14 02:41:42;;;;;;;3.35;1.30;;;;;;;14.16;92.86;98878.28;1737286;82;21046;-76
2022/07/14 02:44:09;;;;;;;2.02;0.98;;;;;;;14.17;92.89;98881.33;1715677;83;21549;-76
2022/07/14 02:46:37;;;;;;;2.98;1.00;;;;;;;14.20;92.86;98872.34;1715654;83;21974;-75
2022/07/14 02:49:04;;;;;;;2.90;1.10;;;;;;;14.24;92.83;98881.78;1717828;81;21503;-77
2022/07/14 02:51:33;;;;;;;3.70;1.12;;;;;;;14.22;92.74;98883.67;1730400;82;21012;-75
2022/07/14 02:54:00;;;;;;;3.87;1.60;;;;;;;14.22;92.75;98888.52;1745015;82;21059;-76
2022/07/14 02:56:27;;;;;;;0.90;0.90;;;;;;;14.21;92.75;98888.13;1730252;82;21073;-75
2022/07/14 02:58:54;;;;;;;2.20;1.42;;;;;;;14.21;92.71;98883.31;1744775;81;21117;-77
2022/07/14 03:01:21;;;;;;;1.02;0.93;;;;;;;14.20;92.72;98892.18;1744935;81;21061;-76
2022/07/14 03:03:48;;;;;;;2.30;0.88;;;;;;;14.19;92.62;98893.11;1745127;82;21481;-76
2022/07/14 03:06:16;;;;;;;4.92;1.90;;;;;;;14.19;92.73;98901.05;1744712;82;22311;-76
2022/07/14 03:08:44;;;;;;;2.60;2.40;;;;;;;14.16;92.83;98891.52;1744812;82;21071;-75
2022/07/14 03:11:11;;;;;;;1.62;1.20;;;;;;;14.17;92.82;98891.91;1745202;81;21112;-76
2022/07/14 03:13:40;;;;;;;1.30;1.20;;;;;;;14.17;92.79;98888.39;1744885;81;21047;-76
2022/07/14 03:16:09;;;;;;;1.20;1.10;;;;;;;14.15;92.59;98894.25;1745317;82;21558;-77
2022/07/14 03:18:37;;;;;;;0.90;0.90;;;;;;;14.11;92.50;98912.94;1744619;81;21054;-76
2022/07/14 03:21:09;;;;;;;2.42;0.90;;;;;;;14.08;92.65;98910.47;1744799;82;21020;-76
2022/07/14 03:23:36;;;;;;;4.03;1.00;;;;;;;14.09;92.67;98914.83;1730207;82;21104;-75
2022/07/14 03:26:04;;;;;;;4.42;0.90;;;;;;;14.09;92.69;98920.13;1744787;82;21047;-76
2022/07/14 03:28:31;;;;;;;4.78;0.90;;;;;;;14.09;92.71;98928.06;1745140;82;21032;-75
2022/07/14 03:30:59;;;;;;;2.65;1.07;;;;;;;14.07;92.79;98925.98;1744809;82;21075;-77
2022/07/14 03:33:26;;;;;;;0.80;0.80;;;;;;;14.11;92.96;98927.98;1745023;81;21004;-75
2022/07/14 03:35:53;;;;;;;1.30;1.30;;;;;;;14.15;92.93;98927.32;1745114;81;21107;-76
2022/07/14 03:38:19;;;;;;;3.22;1.40;;;;;;;14.20;92.90;98939.80;1744876;81;21083;-75
2022/07/14 03:40:48;;;;;;;2.77;1.20;;;;;;;14.21;92.49;98937.55;1744809;81;21519;-75
2022/07/14 03:43:16;;;;;;;1.20;1.10;;;;;;;14.19;92.33;98938.09;1745036;82;21713;-75
2022/07/14 03:45:43;;;;;;;2.92;0.80;;;;;;;14.19;92.35;98941.61;1745223;82;21098;-75
2022/07/14 03:48:11;;;;;;;4.42;1.27;;;;;;;14.20;92.21;98945.09;1744952;81;21123;-75
2022/07/14 03:50:41;;;;;;;1.17;1.05;;;;;;;14.20;92.04;98945.94;1744757;81;20913;-76
2022/07/14 03:53:09;;;;;;;4.85;1.30;;;;;;;14.19;92.05;98946.91;1744904;82;21083;-75
2022/07/14 03:55:35;;;;;;;1.90;1.32;;;;;;;14.21;91.86;98950.78;1744840;81;21001;-75
2022/07/14 03:58:02;;;;;;;1.17;1.17;;;;;;;14.21;91.52;98944.17;1745329;81;21090;-75
2022/07/14 04:00:30;;;;;;;3.02;0.95;;;;;;;14.23;91.54;98939.63;1744752;82;21094;-76
2022/07/14 04:02:57;;;;;;;4.28;1.30;;;;;;;14.26;91.44;98950.88;1744970;81;21115;-74
2022/07/14 04:05:26;;;;;;;1.87;1.10;;;;;;;14.31;91.36;98949.30;1744046;81;21671;-76
2022/07/14 04:07:54;;;;;;;1.80;1.02;;;;;;;14.38;90.93;98958.56;1744511;81;21138;-76
2022/07/14 04:10:21;;;;;;;2.05;0.90;;;;;;;14.42;90.60;98948.16;1744836;82;20981;-76
2022/07/14 04:12:50;;;;;;;2.62;1.12;;;;;;;14.45;90.41;98953.28;1744761;82;21088;-75
2022/07/14 04:15:17;;;;;;;0.98;0.90;;;;;;;14.47;90.34;98946.12;1744883;82;21083;-76
2022/07/14 04:17:43;;;;;;;2.50;1.10;;;;;;;14.54;90.32;98951.91;1744838;82;21127;-75
2022/07/14 04:20:11;;;;;;;3.33;1.10;;;;;;;14.63;90.24;98957.14;1745158;82;21060;-77
2022/07/14 04:22:38;;;;;;;3.40;1.00;;;;;;;14.70;89.97;98958.95;1745055;81;21067;-75
2022/07/14 04:25:09;;;;;;;5.53;1.07;;;;;;;14.75;89.79;98956.39;1744830;81;21557;-76
2022/07/14 04:27:36;;;;;;;1.87;1.10;;;;;;;14.84;89.81;98970.41;1745029;81;21031;-77
2022/07/14 04:30:03;;;;;;;3.42;1.00;;;;;;;14.94;89.73;98967.19;1748145;80;21034;-77
2022/07/14 04:32:30;;;;;;;2.20;1.10;;;;;;;15.04;89.36;98968.31;1745052;81;21057;-76
2022/07/14 04:34:57;;;;;;;3.08;1.15;;;;;;;15.10;88.74;98977.22;1744994;82;21053;-76
2022/07/14 04:37:24;;;;;;;3.40;1.20;;;;;;;15.12;88.32;98972.67;1748624;80;21761;-77
2022/07/14 04:39:51;;;;;;;2.25;1.30;;;;;;;15.09;87.71;98981.29;1738482;81;21088;-76
2022/07/14 04:42:18;;;;;;;2.65;1.30;;;;;;;15.01;87.49;98975.13;1730685;82;21649;-77
2022/07/14 04:44:45;;;;;;;2.27;1.30;;;;;;;14.98;87.49;98983.28;1749892;82;21130;-76
2022/07/14 04:47:13;;;;;;;3.70;1.37;;;;;;;14.99;87.83;98977.86;1750415;82;21121;-77
2022/07/14 04:52:27;;;;;;;3.45;1.20;;;;;;;15.09;87.70;98993.21;1725045;81;21573;-76
2022/07/14 04:54:58;;;;;;;4.47;1.42;;;;;;;15.17;87.82;98999.73;1753929;81;21677;-76
2022/07/14 04:57:36;;;;;;;5.55;1.10;;;;;;;15.20;87.15;98990.28;1754518;81;21137;-76
2022/07/14 05:00:06;;;;;;;2.87;1.20;;;;;;;15.25;86.79;98997.95;1755144;81;21000;-76
2022/07/14 05:02:34;;;;;;;1.98;1.00;;;;;;;15.30;86.71;99000.28;1685530;85;21689;-77
2022/07/14 05:05:01;;;;;;;1.85;1.30;;;;;;;15.37;86.58;99005.13;1685289;85;21079;-76
2022/07/14 05:07:29;;;;;;;1.32;1.10;;;;;;;15.43;86.18;99015.80;1715948;83;21649;-77
2022/07/14 05:09:57;;;;;;;2.15;1.17;;;;;;;15.42;85.91;99008.82;1755040;81;21062;-77
2022/07/14 05:12:26;;;;;;;6.85;1.20;;;;;;;15.41;85.36;99008.43;1755390;81;21105;-76
2022/07/14 05:14:56;;;;;;;1.90;1.05;;;;;;;15.40;85.40;99012.05;1685611;85;21059;-76
2022/07/14 05:17:23;;;;;;;1.00;1.00;;;;;;;15.49;85.19;99015.91;1714489;83;21066;-75
2022/07/14 05:19:52;;;;;;;9.03;1.20;;;;;;;15.54;85.26;99014.66;1713002;83;21075;-76
2022/07/14 05:22:19;;;;;;;1.22;1.02;;;;;;;15.58;85.35;99009.56;1714862;83;21052;-76
2022/07/14 05:24:45;;;;;;;4.12;0.98;;;;;;;15.67;85.57;99011.23;1714727;83;21103;-76
2022/07/14 05:27:12;;;;;;;2.80;1.00;;;;;;;15.74;84.80;99012.56;1714119;83;21075;-75
2022/07/14 05:29:40;;;;;;;2.65;1.20;;;;;;;15.77;84.23;99019.03;1714125;83;21143;-76
2022/07/14 05:32:08;;;;;;;1.45;1.00;;;;;;;15.77;83.96;99023.01;1714140;83;21055;-77
2022/07/14 05:34:42;;;;;;;1.98;1.10;;;;;;;15.75;84.39;99016.89;1714214;83;21068;-76
2022/07/14 05:37:10;;;;;;;4.10;1.00;;;;;;;15.80;84.13;99032.07;1714226;83;21577;-76
2022/07/14 05:39:38;;;;;;;4.53;0.95;;;;;;;15.80;83.99;99029.42;1714329;83;21834;-77
2022/07/14 05:42:06;;;;;;;4.28;0.93;;;;;;;15.78;84.00;99028.67;1714405;83;21009;-76
2022/07/14 05:44:34;;;;;;;8.80;1.70;;;;;;;15.81;83.71;99032.95;1714423;83;21067;-77
2022/07/14 05:47:01;;;;;;;1.27;0.90;;;;;;;15.83;83.47;99033.20;1714448;83;21559;-78
2022/07/14 05:49:28;;;;;;;1.10;1.00;;;;;;;15.86;83.26;99034.83;1714424;83;21090;-77
2022/07/14 05:51:54;;;;;;;1.50;1.00;;;;;;;15.91;83.53;99025.61;1762445;80;21868;-76
2022/07/14 05:54:21;;;;;;;1.87;0.95;;;;;;;15.97;82.93;99030.53;1772767;79;21616;-76
2022/07/14 05:56:48;;;;;;;1.60;0.95;;;;;;;16.06;83.17;99035.71;1772902;79;21538;-76
2022/07/14 05:59:15;;;;;;;4.03;1.55;;;;;;;16.17;82.80;99029.69;1772976;80;21134;-75
2022/07/14 06:01:42;;;;;;;6.10;2.02;;;;;;;16.27;82.51;99029.48;1772682;80;21004;-76
2022/07/14 06:04:09;;;;;;;3.10;1.40;;;;;;;16.39;82.55;99028.28;1772857;80;21077;-76
2022/07/14 06:06:37;;;;;;;12.53;2.85;;;;;;;16.55;83.02;99030.30;1772265;80;21567;-77
2022/07/14 06:09:04;;;;;;;13.68;5.28;;;;;;;16.75;81.99;99024.13;1773276;79;21062;-77
2022/07/14 06:11:31;;;;;;;11.83;4.12;;;;;;;16.92;80.42;99034.47;1772599;79;21098;-78
2022/07/14 06:13:58;;;;;;;12.70;3.40;;;;;;;17.04;79.43;99023.47;1772880;80;21083;-75
2022/07/14 06:16:27;;;;;;;10.88;3.95;;;;;;;17.17;79.21;99028.80;1772839;79;21134;-76
2022/07/14 06:18:54;;;;;;;2.22;1.30;;;;;;;17.27;78.39;99029.85;1772718;80;21093;-77
2022/07/14 06:21:21;;;;;;;5.08;1.92;;;;;;;17.38;78.28;99031.28;1772911;80;21020;-77
2022/07/14 06:23:49;;;;;;;10.95;4.10;;;;;;;17.50;76.98;99022.92;1765855;79;21113;-76
2022/07/14 06:26:16;;;;;;;5.90;2.77;;;;;;;17.59;75.88;99034.70;1772606;80;21487;-77
2022/07/14 06:28:44;;;;;;;10.13;2.40;;;;;;;17.66;75.77;99030.64;1771877;79;21117;-76
2022/07/14 06:31:10;;;;;;;1.77;1.57;;;;;;;17.71;74.47;99033.81;1759674;80;21558;-76
2022/07/14 06:33:39;;;;;;;9.43;3.27;;;;;;;17.76;74.55;99035.66;1756757;81;21080;-76
2022/07/14 06:36:08;;;;;;;14.05;3.83;;;;;;;17.80;73.63;99033.17;1813302;79;21053;-78
2022/07/14 06:38:36;;;;;;;6.90;2.60;;;;;;;17.87;73.87;99031.41;1817789;77;21125;-77
2022/07/14 06:41:02;;;;;;;12.47;3.35;;;;;;;17.95;72.97;99038.35;1741910;82;21146;-77
2022/07/14 06:43:31;;;;;;;7.78;1.85;;;;;;;18.01;73.87;99033.92;1726611;81;21339;-76
2022/07/14 06:45:59;;;;;;;7.85;2.17;;;;;;;18.11;73.04;99036.28;1813052;79;21007;-77
2022/07/14 06:48:26;;;;;;;2.83;1.70;;;;;;;18.23;72.49;99037.67;1814034;79;21067;-76
2022/07/14 06:50:52;;;;;;;4.37;1.35;;;;;;;18.35;72.43;99032.77;1811652;79;21007;-77
2022/07/14 06:53:19;;;;;;;3.47;1.45;;;;;;;18.51;73.68;99038.64;1805092;79;21697;-76
2022/07/14 06:55:46;;;;;;;4.35;1.00;;;;;;;18.69;72.66;99034.21;1805124;79;21039;-77
2022/07/14 06:58:12;;;;;;;3.08;1.00;;;;;;;18.80;72.44;99029.41;1738745;82;21092;-76
2022/07/14 07:00:39;;;;;;;3.12;1.02;;;;;;;18.85;70.77;99022.78;1768885;81;21020;-77
2022/07/14 07:03:11;;;;;;;5.90;1.50;;;;;;;18.82;70.65;99032.31;1769201;81;21138;-76
2022/07/14 07:08:24;;;;;;;;;;;;;;;18.85;69.04;99038.78;1771952;81;21071;-77
2022/07/14 07:10:51;;;;;;;4.62;0.70;;;;;;;18.88;70.04;99038.55;1732880;82;20915;-78
2022/07/14 07:13:18;;;;;;;1.85;0.93;;;;;;;19.00;69.64;99044.75;1741098;82;21130;-77
2022/07/14 07:15:45;;;;;;;2.20;0.88;;;;;;;19.12;69.40;99038.45;1741947;82;21067;-76
2022/07/14 07:18:12;;;;;;;2.62;0.70;;;;;;;19.25;68.61;99040.19;1742139;82;21196;-77
2022/07/14 07:20:38;;;;;;;0.70;0.70;;;;;;;19.34;68.08;99039.45;1741923;82;21582;-77
2022/07/14 07:23:05;;;;;;;1.57;1.05;;;;;;;19.42;67.58;99041.03;1741757;82;21095;-76
2022/07/14 07:25:32;;;;;;;4.70;0.90;;;;;;;19.48;66.55;99044.56;1742371;82;21154;-76
2022/07/14 07:27:59;;;;;;;2.25;0.72;;;;;;;19.55;66.90;99046.72;1741903;82;21106;-76
2022/07/14 07:30:26;;;;;;;2.08;0.68;;;;;;;19.63;65.86;99045.14;1742270;82;21140;-77
2022/07/14 07:32:52;;;;;;;3.72;0.80;;;;;;;19.74;65.47;99043.45;1741672;82;21054;-77
2022/07/14 07:35:19;;;;;;;1.45;0.78;;;;;;;19.82;64.86;99046.36;1742023;82;21102;-76
2022/07/14 07:37:47;;;;;;;3.02;0.65;;;;;;;19.86;65.03;99046.00;1741992;82;21047;-78
2022/07/14 07:40:14;;;;;;;1.15;0.65;;;;;;;19.89;64.34;99042.25;1742037;82;21142;-76
2022/07/14 07:42:41;;;;;;;1.90;0.72;;;;;;;19.91;63.93;99038.13;1741802;82;21141;-77
2022/07/14 07:45:10;;;;;;;0.82;0.78;;;;;;;19.90;64.20;99038.59;1741976;82;21130;-76
2022/07/14 07:47:36;;;;;;;6.80;1.50;;;;;;;19.89;65.16;99042.25;1742117;82;21078;-77
2022/07/14 07:50:05;;;;;;;2.33;0.60;;;;;;;19.86;63.52;99033.15;1742178;82;21083;-76
2022/07/14 07:52:32;;;;;;;0.90;0.90;;;;;;;19.79;64.80;99032.80;1748449;82;21055;-77
2022/07/14 07:54:59;;;;;;;2.33;0.80;;;;;;;19.82;64.97;99032.55;1749919;82;21148;-76
2022/07/14 07:57:26;;;;;;;2.40;0.90;;;;;;;19.92;64.89;99032.66;1749675;82;21539;-78
2022/07/14 07:59:52;;;;;;;1.98;0.70;;;;;;;19.99;63.88;99050.37;1749871;82;21118;-78
2022/07/14 08:02:24;;;;;;;1.55;0.70;;;;;;;20.06;64.79;99045.38;1749666;82;21347;-77
2022/07/14 08:04:48;;;;;;;4.85;0.90;;;;;;;20.18;65.14;99037.19;1771626;80;21209;-76
2022/07/14 08:07:15;;;;;;;3.70;0.80;;;;;;;20.38;63.99;99043.56;1771864;80;21795;-77
2022/07/14 08:09:42;;;;;;;0.78;0.78;;;;;;;20.55;64.24;99045.33;1771781;80;22271;-76
2022/07/14 08:12:08;;;;;;;0.80;0.72;;;;;;;20.64;63.76;99043.23;1771979;80;21039;-76
2022/07/14 08:14:51;;;;;;;1.70;0.80;;;;;;;20.68;64.01;99038.00;1772049;80;21001;-76
2022/07/14 08:17:20;;;;;;;0.75;0.75;;;;;;;20.77;62.52;99044.39;1772326;80;21126;-77
2022/07/14 08:19:47;;;;;;;3.00;0.93;;;;;;;20.86;62.28;99042.76;1771871;80;21207;-76
2022/07/14 08:22:14;;;;;;;4.65;1.50;;;;;;;20.89;61.63;99033.98;1772282;80;21074;-76
2022/07/14 08:24:41;;;;;;;3.80;2.30;;;;;;;20.86;62.51;99044.94;1771960;80;21106;-78
2022/07/14 08:27:07;;;;;;;2.60;1.10;;;;;;;20.85;63.03;99051.28;1774236;79;21052;-76
2022/07/14 08:29:34;;;;;;;1.05;0.75;;;;;;;20.80;62.71;99052.66;1773466;79;21154;-77
2022/07/14 08:32:00;;;;;;;4.37;0.82;;;;;;;20.66;62.92;99047.98;1784826;80;21679;-77
2022/07/14 08:34:26;;;;;;;1.27;0.93;;;;;;;20.59;63.34;99045.41;1769240;81;21914;-77
2022/07/14 08:36:53;;;;;;;1.15;0.70;;;;;;;20.58;62.57;99053.92;1768842;81;21642;-76
2022/07/14 08:39:19;;;;;;;1.67;0.90;;;;;;;20.56;62.36;99048.34;1769275;80;21012;-77
2022/07/14 08:41:47;;;;;;;2.98;0.80;;;;;;;20.55;63.40;99043.98;1768932;81;21059;-78
2022/07/14 08:44:13;;;;;;;3.92;1.05;;;;;;;20.61;63.39;99046.16;1769378;81;21138;-76
2022/07/14 08:46:40;;;;;;;3.58;0.80;;;;;;;20.76;63.30;99045.36;1768885;81;21087;-79
2022/07/14 08:49:07;;;;;;;6.08;0.85;;;;;;;20.89;64.28;99051.86;1768938;81;21090;-76
2022/07/14 08:51:38;;;;;;;1.15;0.78;;;;;;;21.03;62.26;99060.91;1768852;79;21004;-77
2022/07/14 08:54:05;;;;;;;6.33;2.50;;;;;;;21.05;61.58;99054.09;1768031;80;21032;-77
2022/07/14 08:56:32;;;;;;;3.08;1.12;;;;;;;21.02;62.80;99057.86;1769102;81;21149;-77
2022/07/14 08:58:59;;;;;;;1.32;0.90;;;;;;;21.09;62.70;99059.03;1768745;81;21099;-77
2022/07/14 09:01:26;;;;;;;4.28;1.10;;;;;;;21.19;62.11;99047.05;1768826;80;21779;-77
2022/07/14 09:03:54;;;;;;;5.87;1.10;;;;;;;21.30;60.38;99044.77;1768969;81;21503;-77
2022/07/14 09:06:46;;;;;;;2.83;0.90;;;;;;;21.34;59.95;99050.23;1769200;81;21118;-78
2022/07/14 09:09:18;;;;;;;0.85;0.75;;;;;;;21.35;60.04;99050.60;1768808;81;21150;-78
2022/07/14 09:12:05;;;;;;;5.78;0.82;;;;;;;21.36;59.85;99052.28;1768849;81;27352;-78
2022/07/14 09:17:30;;;;;;;1.77;0.88;;;;;;;21.52;59.74;99057.19;1769188;81;21586;-78
2022/07/14 09:20:10;;;;;;;1.10;0.98;;;;;;;21.50;59.76;99050.63;1767902;81;21562;-76
2022/07/14 09:22:39;;;;;;;4.37;0.90;;;;;;;21.52;59.99;99062.55;1769242;81;21029;-77
2022/07/14 09:25:15;;;;;;;3.95;1.00;;;;;;;21.54;60.42;99065.09;1769145;81;21107;-77
2022/07/14 09:27:45;;;;;;;0.90;0.90;;;;;;;21.54;60.92;99060.57;1768952;81;21067;-78
2022/07/14 09:30:12;;;;;;;0.82;0.80;;;;;;;21.61;60.39;99058.20;1768912;81;21051;-78
2022/07/14 09:32:51;;;;;;;1.40;0.90;;;;;;;21.73;58.56;99064.31;1769299;81;21157;-77
2022/07/14 09:35:23;;;;;;;2.10;0.90;;;;;;;21.73;59.92;99061.13;1769008;81;21136;-78
2022/07/14 09:37:52;;;;;;;1.22;1.00;;;;;;;21.69;58.62;99062.40;1769443;81;21101;-77
2022/07/14 09:40:28;;;;;;;1.17;1.07;;;;;;;21.54;59.04;99068.60;1769228;80;21005;-76
2022/07/14 09:43:04;;;;;;;3.72;1.72;;;;;;;21.43;60.27;99068.15;1768918;81;21051;-76
2022/07/14 09:45:40;;;;;;;1.47;1.10;;;;;;;21.49;60.56;99065.48;1769130;81;21063;-78
2022/07/14 09:48:11;;;;;;;4.87;1.67;;;;;;;21.58;59.99;99065.16;1768360;81;21124;-78
2022/07/14 09:50:45;;;;;;;1.77;1.00;;;;;;;21.71;59.68;99070.63;1769153;81;21052;-76
2022/07/14 09:53:20;;;;;;;1.10;1.07;;;;;;;21.89;58.58;99071.34;1768927;80;21005;-77
2022/07/14 09:55:56;;;;;;;2.45;1.30;;;;;;;22.01;60.06;99064.88;1769157;81;21464;-77
2022/07/14 09:58:25;;;;;;;2.87;1.20;;;;;;;22.13;59.42;99062.94;1769503;81;22139;-76
2022/07/14 10:01:04;;;;;;;2.10;1.10;;;;;;;22.17;58.94;99068.36;1769107;81;21216;-78
2022/07/14 10:03:33;;;;;;;4.10;1.45;;;;;;;22.18;57.86;99079.44;1769182;81;21040;-77
2022/07/14 10:06:02;;;;;;;3.70;1.20;;;;;;;22.17;56.56;99064.84;1769162;81;21060;-77
2022/07/14 10:08:33;;;;;;;1.65;1.30;;;;;;;22.13;56.94;99065.61;1769206;81;20993;-78
2022/07/14 10:11:00;;;;;;;1.40;1.30;;;;;;;22.13;58.67;99066.95;1769203;79;21055;-77
2022/07/14 10:13:27;;;;;;;5.22;1.20;;;;;;;22.12;58.47;99070.61;1768819;79;21555;-78
2022/07/14 10:15:54;;;;;;;1.77;1.15;;;;;;;22.11;58.63;99064.91;1769414;81;21111;-79
2022/07/14 10:18:22;;;;;;;4.25;1.57;;;;;;;22.11;57.44;99075.62;1790226;79;21044;-79
2022/07/14 10:20:51;;;;;;;1.85;1.30;;;;;;;22.09;57.97;99066.89;1800884;79;21321;-79
2022/07/14 10:23:18;;;;;;;3.52;1.40;;;;;;;22.05;57.83;99072.98;1800810;79;21539;-78
2022/07/14 10:25:47;;;;;;;3.92;1.27;;;;;;;22.08;58.31;99068.70;1801202;79;21559;-78
2022/07/14 10:28:15;;;;;;;1.20;1.10;;;;;;;22.20;58.59;99069.93;1800632;79;21559;-78
2022/07/14 10:30:56;;;;;;;5.10;1.82;;;;;;;22.45;58.86;99072.60;1800991;79;21067;-79
2022/07/14 10:34:00;;;;;;;1.92;1.30;;;;;;;22.64;57.09;99074.44;1776655;79;21063;-78
2022/07/14 10:36:38;;;;;;;5.95;2.20;;;;;;;22.78;56.29;99078.55;1738856;82;20987;-78
2022/07/14 10:39:35;;;;;;;1.95;1.30;;;;;;;22.84;56.41;99067.73;1768978;81;21102;-79
2022/07/14 10:42:38;;;;;;;6.37;1.10;;;;;;;22.92;56.40;99063.34;1738573;82;21167;-78
2022/07/14 10:45:05;;;;;;;5.37;1.10;;;;;;;23.12;56.24;99068.72;1768689;81;20977;-80
2022/07/14 10:47:48;;;;;;;1.72;1.15;;;;;;;23.28;54.78;99063.57;1745405;81;21075;-78
2022/07/14 10:50:23;;;;;;;8.90;1.10;;;;;;;23.44;54.83;99054.08;1769408;81;21095;-78
2022/07/14 10:53:00;;;;;;;2.98;1.10;;;;;;;23.58;53.31;99050.90;1765234;80;21083;-79
2022/07/14 10:55:33;;;;;;;6.40;1.20;;;;;;;23.72;53.45;99058.48;1762304;81;20985;-79
2022/07/14 10:58:07;;;;;;;1.72;1.27;;;;;;;23.69;51.75;99062.80;1762565;81;21054;-78
2022/07/14 11:00:47;;;;;;;;;;;;;;;23.54;51.85;99062.44;1765064;81;21669;-76
2022/07/14 11:03:30;;;;;;;2.30;1.50;;;;;;;23.53;52.48;99063.92;1762359;80;20203;-75
2022/07/14 11:06:09;;;;;;;2.15;1.15;;;;;;;23.59;53.87;99063.34;1762340;81;21091;-77
2022/07/14 11:08:39;;;;;;;2.42;1.30;;;;;;;23.70;54.42;99058.27;1762495;80;21522;-76
2022/07/14 11:11:23;;;;;;;1.98;1.20;;;;;;;23.85;55.55;99058.66;1762275;80;21059;-76
2022/07/14 11:14:07;;;;;;;1.10;1.00;;;;;;;24.02;53.74;99059.18;1762407;81;21040;-76
2022/07/14 11:16:50;;;;;;;3.90;1.10;;;;;;;24.14;51.95;99060.33;1762087;81;21062;-77
2022/07/14 11:19:26;;;;;;;1.20;1.20;;;;;;;24.26;52.96;99056.44;1762730;81;21071;-76
2022/07/14 11:22:16;;;;;;;3.02;1.20;;;;;;;24.25;47.32;99060.12;1762155;80;21087;-77
2022/07/14 11:24:49;;;;;;;5.03;1.22;;;;;;;24.14;49.54;99062.53;1762633;81;21004;-76
2022/07/14 11:27:34;;;;;;;4.97;1.20;;;;;;;24.13;49.25;99057.31;1759172;81;21047;-76
2022/07/14 11:30:28;;;;;;;1.75;1.12;;;;;;;24.07;49.52;99057.39;1762554;81;21107;-77
2022/07/14 11:33:03;;;;;;;1.70;1.37;;;;;;;24.06;50.44;99055.22;1762266;81;21884;-77
2022/07/14 11:38:34;;;;;;;5.55;1.30;;;;;;;24.49;47.80;99055.47;1762395;81;21008;-77
2022/07/14 11:41:02;;;;;;;2.00;1.30;;;;;;;24.68;49.00;99056.34;1762689;81;21141;-76
2022/07/14 11:43:36;;;;;;;2.47;1.25;;;;;;;24.75;48.80;99048.86;1762186;81;21099;-77
2022/07/14 11:46:09;;;;;;;1.30;1.20;;;;;;;24.84;47.34;99052.45;1762350;81;21123;-78
2022/07/14 11:48:40;;;;;;;1.25;1.15;;;;;;;24.95;48.67;99041.92;1762373;81;21632;-76
2022/07/14 11:51:20;;;;;;;1.60;1.17;;;;;;;25.15;47.58;99042.56;1761213;81;20989;-77
2022/07/14 11:53:55;;;;;;;4.78;1.05;;;;;;;25.35;47.34;99040.53;1770341;80;21019;-77
2022/07/14 11:56:26;;;;;;;2.10;1.20;;;;;;;25.55;44.34;99051.92;1772887;79;21090;-77
2022/07/14 11:58:53;;;;;;;0.90;0.90;;;;;;;25.58;45.35;99043.02;1772570;80;21133;-77